Time;durP1;ratioP1;P1;durP2;ratioP2;P2;SDS_P1;SDS_P2;PMS_P1;PMS_P2;Temp;Humidity;BMP_temperature;BMP_pressure;BME280_temperature;BME280_humidity;BME280_pressure;Samples;Min_cycle;Max_cycle;Signal;HPM_P1;HPM_P2
2023/01/10 00:01:10;;;;;;;36.60;21.38;;;;;;;;;;6247698;28;20025;-77
2023/01/10 00:04:10;;;;;;;37.78;20.58;;;;;;;;;;6245910;28;20022;-78
2023/01/10 00:07:10;;;;;;;43.10;24.13;;;;;;;;;;6247985;28;20018;-77
2023/01/10 00:10:10;;;;;;;36.28;21.58;;;;;;;;;;6245696;28;20044;-76
2023/01/10 00:13:22;;;;;;;40.80;22.37;;;;;;;;;;6247950;28;20025;-77
2023/01/10 00:16:22;;;;;;;39.60;22.70;;;;;;;;;;6248611;28;20499;-77
2023/01/10 00:19:22;;;;;;;38.50;23.13;;;;;;;;;;6248243;28;20025;-77
2023/01/10 00:22:24;;;;;;;42.53;25.50;;;;;;;;;;6248281;28;20025;-77
2023/01/10 00:25:24;;;;;;;;;;;;;;;;;;6249347;28;20033;-77
2023/01/10 00:28:25;;;;;;;41.92;25.00;;;;;;;;;;6229538;28;19944;-77
2023/01/10 00:31:25;;;;;;;40.87;24.47;;;;;;;;;;6248045;28;20018;-78
2023/01/10 00:34:25;;;;;;;37.73;20.87;;;;;;;;;;6230732;28;20071;-78
2023/01/10 00:37:26;;;;;;;42.10;23.40;;;;;;;;;;6246681;28;20021;-77
2023/01/10 00:40:26;;;;;;;37.78;22.60;;;;;;;;;;6248809;28;20025;-77
2023/01/10 00:46:45;;;;;;;36.75;23.33;;;;;;;;;;6244619;28;20037;-77
2023/01/10 00:49:45;;;;;;;37.33;21.10;;;;;;;;;;6229050;28;20383;-77
2023/01/10 00:52:45;;;;;;;34.40;21.07;;;;;;;;;;6241476;28;21353;-77
2023/01/10 00:55:46;;;;;;;44.83;22.57;;;;;;;;;;6243489;28;20018;-77
2023/01/10 00:58:46;;;;;;;34.60;21.03;;;;;;;;;;6220580;28;20485;-77
2023/01/10 01:01:46;;;;;;;33.42;20.35;;;;;;;;;;6245840;28;20065;-77
2023/01/10 01:04:46;;;;;;;34.53;19.93;;;;;;;;;;6227199;28;20384;-77
2023/01/10 01:07:47;;;;;;;34.88;18.27;;;;;;;;;;6247129;28;20446;-77
2023/01/10 01:10:48;;;;;;;33.63;20.33;;;;;;;;;;6254767;28;20016;-77
2023/01/10 01:13:48;;;;;;;33.03;18.70;;;;;;;;;;6226017;28;20252;-77
2023/01/10 01:16:48;;;;;;;31.33;19.17;;;;;;;;;;6245831;28;20021;-77
2023/01/10 01:19:48;;;;;;;34.60;19.23;;;;;;;;;;6244133;28;20022;-77
2023/01/10 01:22:49;;;;;;;32.65;19.00;;;;;;;;;;6246755;28;20052;-77
2023/01/10 01:25:50;;;;;;;34.10;19.13;;;;;;;;;;6245814;28;20096;-78
2023/01/10 01:28:50;;;;;;;36.22;20.88;;;;;;;;;;6239189;28;20022;-78
2023/01/10 01:31:50;;;;;;;35.17;20.07;;;;;;;;;;6244640;28;20049;-78
2023/01/10 01:34:51;;;;;;;34.40;19.70;;;;;;;;;;6247634;28;20088;-76
2023/01/10 01:37:51;;;;;;;28.30;19.10;;;;;;;;;;6228751;28;20075;-77
2023/01/10 01:40:51;;;;;;;34.90;20.57;;;;;;;;;;6229296;28;20096;-77
2023/01/10 01:44:05;;;;;;;32.27;19.63;;;;;;;;;;6248735;28;20017;-77
2023/01/10 01:47:06;;;;;;;34.03;19.80;;;;;;;;;;6246201;28;20021;-77
2023/01/10 01:50:25;;;;;;;28.33;17.25;;;;;;;;;;6246645;28;20556;-77
2023/01/10 01:53:25;;;;;;;32.22;17.95;;;;;;;;;;6242083;28;20063;-78
2023/01/10 01:56:34;;;;;;;37.27;19.60;;;;;;;;;;6224312;28;20025;-78
2023/01/10 01:59:42;;;;;;;36.10;20.80;;;;;;;;;;6224793;28;20025;-78
2023/01/10 02:02:46;;;;;;;40.60;20.38;;;;;;;;;;6240944;28;20028;-78
2023/01/10 02:05:46;;;;;;;35.58;19.40;;;;;;;;;;6247472;28;20033;-77
2023/01/10 02:08:52;;;;;;;34.07;21.00;;;;;;;;;;6227199;28;20513;-77
2023/01/10 02:11:53;;;;;;;32.80;18.33;;;;;;;;;;6227165;28;20017;-77
2023/01/10 02:14:53;;;;;;;32.53;18.25;;;;;;;;;;6227634;28;20055;-77
2023/01/10 02:17:53;;;;;;;32.83;19.67;;;;;;;;;;6227176;28;20013;-77
2023/01/10 02:21:12;;;;;;;30.27;18.63;;;;;;;;;;6226859;28;20021;-77
2023/01/10 02:24:31;;;;;;;32.33;18.45;;;;;;;;;;6244937;28;20167;-77
2023/01/10 02:27:55;;;;;;;32.22;17.27;;;;;;;;;;6244436;28;20018;-76
2023/01/10 02:31:01;;;;;;;32.53;20.42;;;;;;;;;;6237228;28;20025;-76
2023/01/10 02:34:02;;;;;;;35.08;19.70;;;;;;;;;;6226439;28;20024;-77
2023/01/10 02:37:20;;;;;;;217.10;43.90;;;;;;;;;;6237027;28;20021;-78
2023/01/10 02:40:23;;;;;;;971.72;120.68;;;;;;;;;;6238080;28;20152;-77
2023/01/10 02:43:25;;;;;;;1725.90;203.88;;;;;;;;;;6240654;28;20443;-77
2023/01/10 02:46:28;;;;;;;1999.90;231.45;;;;;;;;;;6236016;28;20128;-79
2023/01/10 02:49:28;;;;;;;1999.90;237.70;;;;;;;;;;6226505;28;20107;-78
2023/01/10 02:52:29;;;;;;;1999.90;192.57;;;;;;;;;;6240228;28;20010;-77
2023/01/10 02:55:39;;;;;;;1577.10;154.68;;;;;;;;;;6221731;28;20033;-77
2023/01/10 02:58:58;;;;;;;1210.93;116.28;;;;;;;;;;6242901;28;20033;-77
2023/01/10 03:01:58;;;;;;;596.80;70.15;;;;;;;;;;6223589;28;20063;-78
2023/01/10 03:05:07;;;;;;;590.43;87.03;;;;;;;;;;6223387;28;20014;-79
2023/01/10 03:08:10;;;;;;;1140.82;183.52;;;;;;;;;;6219016;28;20073;-77
2023/01/10 03:11:10;;;;;;;914.95;140.02;;;;;;;;;;6241071;28;20089;-77
2023/01/10 03:14:24;;;;;;;467.40;75.50;;;;;;;;;;6244453;28;20053;-76
2023/01/10 03:17:26;;;;;;;787.72;70.90;;;;;;;;;;6236729;28;20029;-75
2023/01/10 03:20:27;;;;;;;634.85;84.18;;;;;;;;;;6244065;28;20299;-75
2023/01/10 03:23:28;;;;;;;1402.35;105.38;;;;;;;;;;6244148;28;20041;-75
2023/01/10 03:26:31;;;;;;;1999.90;328.30;;;;;;;;;;6225680;28;20041;-75
2023/01/10 03:29:44;;;;;;;1999.90;280.17;;;;;;;;;;6224926;28;20025;-74
2023/01/10 03:32:44;;;;;;;1188.75;131.00;;;;;;;;;;6222891;28;20172;-74
2023/01/10 03:35:53;;;;;;;1999.90;294.20;;;;;;;;;;6243006;28;20481;-74
2023/01/10 03:39:01;;;;;;;1815.60;191.77;;;;;;;;;;6216889;28;20477;-75
2023/01/10 03:42:06;;;;;;;1999.90;274.95;;;;;;;;;;6252413;28;20340;-75
2023/01/10 03:45:08;;;;;;;1938.72;214.80;;;;;;;;;;6248267;28;20025;-75
2023/01/10 03:48:10;;;;;;;1121.18;122.47;;;;;;;;;;6252809;28;20018;-75
2023/01/10 03:51:11;;;;;;;1999.90;250.10;;;;;;;;;;6230243;28;20060;-76
2023/01/10 03:54:14;;;;;;;1901.65;166.80;;;;;;;;;;6246314;28;20096;-76
2023/01/10 03:57:15;;;;;;;1967.82;178.00;;;;;;;;;;6230301;28;20006;-77
2023/01/10 04:00:16;;;;;;;1999.90;316.23;;;;;;;;;;6248423;28;20096;-76
2023/01/10 04:03:16;;;;;;;999.37;103.10;;;;;;;;;;6250265;28;20424;-76
2023/01/10 04:06:18;;;;;;;1999.90;320.73;;;;;;;;;;6243980;28;20052;-76
2023/01/10 04:09:19;;;;;;;1999.90;255.00;;;;;;;;;;6223832;28;20060;-76
2023/01/10 04:12:19;;;;;;;1998.07;208.50;;;;;;;;;;6230489;28;20002;-76
2023/01/10 04:15:19;;;;;;;1985.28;241.13;;;;;;;;;;6230016;28;20024;-79
2023/01/10 04:18:19;;;;;;;1999.90;192.07;;;;;;;;;;6249502;28;20021;-79
2023/01/10 04:21:20;;;;;;;1999.90;337.37;;;;;;;;;;6249370;28;20017;-79
2023/01/10 04:24:20;;;;;;;1558.53;136.40;;;;;;;;;;6248629;28;20500;-79
2023/01/10 04:27:20;;;;;;;1483.40;202.93;;;;;;;;;;6234884;28;20014;-79
2023/01/10 04:30:20;;;;;;;580.30;194.67;;;;;;;;;;6248939;28;20021;-79
2023/01/10 04:33:21;;;;;;;941.40;150.53;;;;;;;;;;6258397;28;20424;-79
2023/01/10 04:36:21;;;;;;;919.23;247.00;;;;;;;;;;6247839;28;20437;-79
2023/01/10 04:39:21;;;;;;;1609.90;265.53;;;;;;;;;;6228214;28;20033;-78
2023/01/10 04:42:22;;;;;;;1987.30;229.37;;;;;;;;;;6227170;28;20029;-78
2023/01/10 04:45:23;;;;;;;1730.07;183.13;;;;;;;;;;6246806;28;20228;-80
2023/01/10 04:48:23;;;;;;;1202.17;180.80;;;;;;;;;;6246783;28;20393;-79
2023/01/10 04:51:24;;;;;;;1999.90;274.53;;;;;;;;;;6242211;28;20018;-79
2023/01/10 04:54:24;;;;;;;1704.43;243.20;;;;;;;;;;6229487;28;20072;-79
2023/01/10 04:57:24;;;;;;;1924.07;292.27;;;;;;;;;;6229784;28;20416;-79
2023/01/10 05:00:25;;;;;;;1999.90;316.77;;;;;;;;;;6223758;28;20071;-80
2023/01/10 05:03:25;;;;;;;1999.90;569.97;;;;;;;;;;6248818;28;20043;-80
2023/01/10 05:06:25;;;;;;;1999.90;852.73;;;;;;;;;;6247838;28;20550;-79
2023/01/10 05:09:25;;;;;;;1999.90;818.90;;;;;;;;;;6221630;28;20656;-79
2023/01/10 05:12:26;;;;;;;1999.90;932.87;;;;;;;;;;6222719;28;20020;-80
2023/01/10 05:15:26;;;;;;;1999.90;636.57;;;;;;;;;;6229939;28;20014;-80
2023/01/10 05:18:27;;;;;;;1999.90;342.47;;;;;;;;;;6246990;28;20029;-80
2023/01/10 05:21:27;;;;;;;1999.90;497.90;;;;;;;;;;6247012;28;20032;-80
2023/01/10 05:24:27;;;;;;;1999.90;358.83;;;;;;;;;;6246034;28;20017;-80
2023/01/10 05:27:30;;;;;;;1999.90;435.83;;;;;;;;;;6229973;28;20441;-80
2023/01/10 05:30:30;;;;;;;1999.90;357.17;;;;;;;;;;6248652;28;20010;-80
2023/01/10 05:33:30;;;;;;;1999.90;354.07;;;;;;;;;;6248536;28;20438;-80
2023/01/10 05:36:31;;;;;;;1996.67;326.40;;;;;;;;;;6247641;28;20277;-80
2023/01/10 05:39:31;;;;;;;424.67;137.17;;;;;;;;;;6245185;28;20481;-79
2023/01/10 05:42:31;;;;;;;920.90;165.97;;;;;;;;;;6244425;28;20026;-78
2023/01/10 05:45:32;;;;;;;836.10;184.13;;;;;;;;;;6235660;28;20354;-78
2023/01/10 05:48:32;;;;;;;1981.33;202.17;;;;;;;;;;6244663;28;20105;-77
2023/01/10 05:51:32;;;;;;;1999.90;744.75;;;;;;;;;;6238200;28;20040;-79
2023/01/10 05:54:32;;;;;;;1999.90;893.73;;;;;;;;;;6223624;28;20071;-80
2023/01/10 05:57:33;;;;;;;1999.90;487.27;;;;;;;;;;6237512;28;20030;-80
2023/01/10 06:00:33;;;;;;;1775.07;366.30;;;;;;;;;;6241161;28;20029;-79
2023/01/10 06:03:33;;;;;;;1987.15;216.32;;;;;;;;;;6219859;28;20473;-79
2023/01/10 06:06:34;;;;;;;1999.90;282.73;;;;;;;;;;6245125;28;20053;-79
2023/01/10 06:09:35;;;;;;;1999.90;348.52;;;;;;;;;;6245330;28;20041;-79
2023/01/10 06:12:37;;;;;;;1143.20;141.07;;;;;;;;;;6219012;28;20543;-80
2023/01/10 06:15:37;;;;;;;1146.07;200.77;;;;;;;;;;6244593;28;21141;-80
2023/01/10 06:18:38;;;;;;;1999.90;274.70;;;;;;;;;;6238392;28;20516;-80
2023/01/10 06:21:38;;;;;;;1999.90;385.77;;;;;;;;;;6235636;28;20025;-80
2023/01/10 06:24:38;;;;;;;1999.90;849.33;;;;;;;;;;6225288;28;20021;-80
2023/01/10 06:27:39;;;;;;;1999.90;609.60;;;;;;;;;;6220865;28;20032;-80
2023/01/10 06:30:40;;;;;;;1999.90;576.43;;;;;;;;;;6216328;28;20009;-80
2023/01/10 06:33:42;;;;;;;1999.90;546.72;;;;;;;;;;6221018;28;20480;-80
2023/01/10 06:36:42;;;;;;;;;;;;;;;;;;6225357;28;20033;-80
2023/01/10 06:39:45;;;;;;;1702.00;177.85;;;;;;;;;;6224710;28;19905;-80
2023/01/10 06:42:45;;;;;;;1999.90;550.60;;;;;;;;;;6221329;28;20018;-80
2023/01/10 06:45:45;;;;;;;1999.90;596.27;;;;;;;;;;6222266;28;20064;-80
2023/01/10 06:48:46;;;;;;;1271.47;236.45;;;;;;;;;;6234631;28;20041;-79
2023/01/10 06:51:46;;;;;;;1999.90;297.67;;;;;;;;;;6233441;28;20021;-79
2023/01/10 06:54:47;;;;;;;1120.67;191.17;;;;;;;;;;6216486;28;20375;-79
2023/01/10 06:57:48;;;;;;;1999.90;383.67;;;;;;;;;;6238464;28;20017;-80
2023/01/10 07:00:48;;;;;;;1665.40;232.57;;;;;;;;;;6234061;28;20037;-79
2023/01/10 07:03:48;;;;;;;1999.90;283.83;;;;;;;;;;6234358;28;20103;-79
2023/01/10 07:06:49;;;;;;;935.97;127.73;;;;;;;;;;6216859;28;20058;-79
2023/01/10 07:09:49;;;;;;;1999.90;735.90;;;;;;;;;;6222909;28;20058;-79
2023/01/10 07:12:49;;;;;;;1999.90;421.10;;;;;;;;;;6217202;28;21487;-79
2023/01/10 07:15:49;;;;;;;1999.90;285.40;;;;;;;;;;6227207;28;20017;-79
2023/01/10 07:18:49;;;;;;;1999.90;323.90;;;;;;;;;;6241201;28;20014;-79
2023/01/10 07:21:50;;;;;;;1652.70;151.13;;;;;;;;;;6224841;28;20490;-79
2023/01/10 07:24:50;;;;;;;1457.22;170.95;;;;;;;;;;6242051;28;20064;-79
2023/01/10 07:27:50;;;;;;;1999.90;237.63;;;;;;;;;;6249503;28;20477;-80
2023/01/10 07:30:50;;;;;;;1999.90;403.17;;;;;;;;;;6242642;28;20009;-79
2023/01/10 07:33:51;;;;;;;1999.90;224.50;;;;;;;;;;6244932;28;20009;-80
2023/01/10 07:36:51;;;;;;;1999.90;313.07;;;;;;;;;;6250087;28;20025;-80
2023/01/10 07:39:51;;;;;;;1999.90;266.70;;;;;;;;;;6230785;28;20022;-80
2023/01/10 07:42:59;;;;;;;1995.00;187.77;;;;;;;;;;6250553;28;20422;-81
2023/01/10 07:45:59;;;;;;;1999.90;260.90;;;;;;;;;;6223758;28;20123;-80
2023/01/10 07:49:00;;;;;;;1999.90;507.10;;;;;;;;;;6243057;28;20018;-80
2023/01/10 07:52:00;;;;;;;1936.93;232.80;;;;;;;;;;6226883;28;20029;-81
2023/01/10 07:55:00;;;;;;;1999.90;235.77;;;;;;;;;;6238234;28;20052;-80
2023/01/10 07:58:00;;;;;;;1999.90;379.30;;;;;;;;;;6247178;28;20080;-80
2023/01/10 08:01:01;;;;;;;1999.90;372.83;;;;;;;;;;6245814;28;20029;-80
2023/01/10 08:04:02;;;;;;;1999.90;342.80;;;;;;;;;;6238967;28;20029;-81
2023/01/10 08:07:02;;;;;;;1999.90;373.03;;;;;;;;;;6245587;28;20053;-83
2023/01/10 08:10:06;;;;;;;1999.90;491.90;;;;;;;;;;6233675;28;20041;-83
2023/01/10 08:13:06;;;;;;;1999.90;271.42;;;;;;;;;;6228225;28;20025;-82
2023/01/10 08:16:07;;;;;;;1999.90;365.10;;;;;;;;;;6225947;28;20063;-82
2023/01/10 08:19:08;;;;;;;1999.90;682.77;;;;;;;;;;6241841;28;20033;-82
2023/01/10 08:22:08;;;;;;;1999.90;566.90;;;;;;;;;;6240940;28;20063;-81
2023/01/10 08:25:08;;;;;;;1999.90;513.40;;;;;;;;;;6229063;28;20033;-82
2023/01/10 08:28:08;;;;;;;1999.90;532.50;;;;;;;;;;6224456;28;20477;-82
2023/01/10 08:31:09;;;;;;;1999.90;429.80;;;;;;;;;;6223212;28;20099;-81
2023/01/10 08:34:11;;;;;;;1999.90;677.80;;;;;;;;;;6236059;28;20028;-82
2023/01/10 08:37:12;;;;;;;1999.90;557.90;;;;;;;;;;6240537;28;20512;-81
2023/01/10 08:40:13;;;;;;;1999.90;487.97;;;;;;;;;;6226533;28;20156;-82
2023/01/10 08:43:13;;;;;;;1999.90;403.53;;;;;;;;;;6228088;28;20647;-81
2023/01/10 08:46:14;;;;;;;1999.90;514.00;;;;;;;;;;6215214;28;20036;-81
2023/01/10 08:49:14;;;;;;;1999.90;475.58;;;;;;;;;;6222975;28;20014;-81
2023/01/10 08:52:14;;;;;;;1999.90;537.60;;;;;;;;;;6226402;28;20032;-81
2023/01/10 08:55:15;;;;;;;1999.90;488.70;;;;;;;;;;6230764;28;20400;-81
2023/01/10 08:58:15;;;;;;;1999.90;584.87;;;;;;;;;;6243792;28;20390;-81
2023/01/10 09:01:15;;;;;;;1999.90;378.20;;;;;;;;;;6245522;28;20037;-81
2023/01/10 09:04:16;;;;;;;1999.90;414.47;;;;;;;;;;6247104;28;20117;-80
2023/01/10 09:07:16;;;;;;;1802.37;254.73;;;;;;;;;;6240006;28;20061;-81
2023/01/10 09:10:16;;;;;;;1380.77;198.70;;;;;;;;;;6240765;28;20024;-80
2023/01/10 09:13:16;;;;;;;1999.90;599.93;;;;;;;;;;6228095;28;20443;-81
2023/01/10 09:16:17;;;;;;;1999.90;260.00;;;;;;;;;;6248166;28;20025;-81
2023/01/10 09:19:17;;;;;;;1999.90;383.77;;;;;;;;;;6223376;28;20030;-80
2023/01/10 09:22:18;;;;;;;1974.90;299.93;;;;;;;;;;6239625;28;20461;-81
2023/01/10 09:25:18;;;;;;;1999.90;414.37;;;;;;;;;;6223150;28;20116;-81
2023/01/10 09:28:19;;;;;;;1999.90;470.03;;;;;;;;;;6243862;28;20021;-81
2023/01/10 09:31:19;;;;;;;1999.90;619.07;;;;;;;;;;6229961;28;20029;-81
2023/01/10 09:34:19;;;;;;;1999.90;446.03;;;;;;;;;;6224533;28;20167;-80
2023/01/10 09:37:19;;;;;;;1999.90;234.17;;;;;;;;;;6237338;28;20056;-80
2023/01/10 09:40:24;;;;;;;506.33;65.43;;;;;;;;;;6235916;28;20493;-80
2023/01/10 09:43:30;;;;;;;1990.07;123.18;;;;;;;;;;6227803;28;20025;-79
2023/01/10 09:46:40;;;;;;;1028.22;95.22;;;;;;;;;;6226449;28;20064;-79
2023/01/10 09:49:59;;;;;;;901.58;182.07;;;;;;;;;;6226892;28;20036;-80
2023/01/10 09:53:04;;;;;;;1026.38;222.82;;;;;;;;;;6245119;28;20091;-80
2023/01/10 09:56:06;;;;;;;559.05;162.77;;;;;;;;;;6226630;28;20547;-80
2023/01/10 09:59:12;;;;;;;1027.85;217.77;;;;;;;;;;6246220;28;20017;-80
2023/01/10 10:02:31;;;;;;;490.70;183.07;;;;;;;;;;6238830;28;20108;-80
2023/01/10 10:05:32;;;;;;;254.55;72.93;;;;;;;;;;6240630;28;20029;-80
2023/01/10 10:08:32;;;;;;;1097.70;118.90;;;;;;;;;;6223208;28;20531;-80
2023/01/10 10:11:40;;;;;;;1478.97;141.77;;;;;;;;;;6226792;28;20017;-80
2023/01/10 10:14:55;;;;;;;272.85;116.78;;;;;;;;;;6238015;28;20052;-80
2023/01/10 10:18:25;;;;;;;231.45;62.97;;;;;;;;;;6224937;28;20052;-80
2023/01/10 10:21:37;;;;;;;124.70;50.50;;;;;;;;;;6210130;28;20052;-80
2023/01/10 10:24:37;;;;;;;160.30;111.75;;;;;;;;;;6242558;28;20081;-79
2023/01/10 10:27:56;;;;;;;139.07;89.10;;;;;;;;;;6244070;28;20067;-79
2023/01/10 10:31:14;;;;;;;221.85;136.98;;;;;;;;;;6244464;28;20539;-80
2023/01/10 10:34:24;;;;;;;246.38;140.45;;;;;;;;;;6238573;28;20010;-80
2023/01/10 10:37:24;;;;;;;243.65;144.55;;;;;;;;;;6220602;28;20021;-79
2023/01/10 10:40:27;;;;;;;218.47;138.27;;;;;;;;;;6222117;28;20033;-79
2023/01/10 10:43:32;;;;;;;229.93;138.88;;;;;;;;;;6217833;28;20044;-80
2023/01/10 10:46:32;;;;;;;460.42;228.48;;;;;;;;;;6235786;28;20543;-80
2023/01/10 10:49:36;;;;;;;212.80;135.57;;;;;;;;;;6243528;28;20050;-80
2023/01/10 10:52:36;;;;;;;165.07;49.13;;;;;;;;;;6239687;28;20426;-80
2023/01/10 10:55:37;;;;;;;548.03;182.03;;;;;;;;;;6221642;28;20045;-79
2023/01/10 10:58:38;;;;;;;124.03;49.87;;;;;;;;;;6218799;28;20022;-79
2023/01/10 11:01:42;;;;;;;184.00;52.90;;;;;;;;;;6242853;28;20033;-78
2023/01/10 11:04:42;;;;;;;616.88;177.80;;;;;;;;;;6224116;28;20075;-79
2023/01/10 11:07:43;;;;;;;462.87;80.23;;;;;;;;;;6240752;28;20381;-79
2023/01/10 11:10:45;;;;;;;259.67;43.03;;;;;;;;;;6242435;28;20022;-80
2023/01/10 11:13:49;;;;;;;575.75;136.90;;;;;;;;;;6227583;28;20529;-79
2023/01/10 11:16:50;;;;;;;713.15;131.85;;;;;;;;;;6227276;28;20682;-78
2023/01/10 11:20:00;;;;;;;595.00;102.73;;;;;;;;;;6241440;28;20037;-79
2023/01/10 11:23:00;;;;;;;348.13;90.70;;;;;;;;;;6227635;28;20142;-79
2023/01/10 11:26:01;;;;;;;447.30;143.97;;;;;;;;;;6225846;28;20534;-80
2023/01/10 11:29:04;;;;;;;588.83;107.50;;;;;;;;;;6225939;28;20064;-79
2023/01/10 11:32:13;;;;;;;266.08;67.72;;;;;;;;;;6234896;28;20505;-80
2023/01/10 11:35:40;;;;;;;1209.93;191.43;;;;;;;;;;6238903;28;20021;-79
2023/01/10 11:38:41;;;;;;;727.15;231.10;;;;;;;;;;6221655;28;20080;-78
2023/01/10 11:41:41;;;;;;;117.63;33.20;;;;;;;;;;6228132;28;20061;-78
2023/01/10 11:44:41;;;;;;;356.80;78.00;;;;;;;;;;6240255;28;20041;-79
2023/01/10 11:47:42;;;;;;;510.83;113.00;;;;;;;;;;6245111;28;20018;-79
2023/01/10 11:50:47;;;;;;;431.50;95.27;;;;;;;;;;6242009;28;20026;-78
2023/01/10 11:53:50;;;;;;;582.35;289.92;;;;;;;;;;6230205;28;20524;-79
2023/01/10 11:56:55;;;;;;;799.75;179.88;;;;;;;;;;6228272;28;20048;-78
2023/01/10 11:59:57;;;;;;;837.92;205.93;;;;;;;;;;6246287;28;20017;-78
2023/01/10 12:02:58;;;;;;;568.72;59.17;;;;;;;;;;6234043;28;20017;-79
2023/01/10 12:05:59;;;;;;;684.47;190.37;;;;;;;;;;6218504;28;20053;-78
2023/01/10 12:09:00;;;;;;;906.17;176.57;;;;;;;;;;6242279;28;20042;-79
2023/01/10 12:12:04;;;;;;;656.03;241.50;;;;;;;;;;6218995;28;20017;-78
2023/01/10 12:15:24;;;;;;;541.10;90.63;;;;;;;;;;6240808;28;20435;-79
2023/01/10 12:18:24;;;;;;;645.30;184.32;;;;;;;;;;6221342;28;20464;-79
2023/01/10 12:21:37;;;;;;;898.17;239.40;;;;;;;;;;6225905;28;20274;-79
2023/01/10 12:24:39;;;;;;;767.90;198.40;;;;;;;;;;6238070;28;20030;-78
2023/01/10 12:27:41;;;;;;;930.15;138.90;;;;;;;;;;6241106;28;20021;-78
2023/01/10 12:30:43;;;;;;;;;;;;;;;;;;6243555;28;20136;-79
2023/01/10 12:33:50;;;;;;;445.65;59.80;;;;;;;;;;6240688;28;19905;-79
2023/01/10 12:36:58;;;;;;;903.10;170.00;;;;;;;;;;6246451;28;20075;-79
2023/01/10 12:40:01;;;;;;;149.43;32.88;;;;;;;;;;6246265;28;20030;-79
2023/01/10 12:46:31;;;;;;;472.30;113.80;;;;;;;;;;6242169;28;20504;-78
2023/01/10 12:49:36;;;;;;;310.73;74.85;;;;;;;;;;6236721;28;20097;-78
2023/01/10 12:52:48;;;;;;;528.10;86.07;;;;;;;;;;6229143;28;20047;-79
2023/01/10 12:55:50;;;;;;;90.93;31.63;;;;;;;;;;6225328;28;20022;-79
2023/01/10 12:58:53;;;;;;;647.90;217.48;;;;;;;;;;6242415;28;20040;-78
2023/01/10 13:01:55;;;;;;;373.33;65.80;;;;;;;;;;6218285;28;20045;-79
2023/01/10 13:04:56;;;;;;;;;;;;;;;;;;6239693;28;20028;-79
2023/01/10 13:08:03;;;;;;;825.90;166.13;;;;;;;;;;6224645;28;19921;-79
2023/01/10 13:11:05;;;;;;;513.88;176.35;;;;;;;;;;6243788;28;20280;-79
2023/01/10 13:14:07;;;;;;;416.92;83.18;;;;;;;;;;6222202;28;20018;-78
2023/01/10 13:17:15;;;;;;;547.65;200.48;;;;;;;;;;6246173;28;20495;-78
2023/01/10 13:20:15;;;;;;;254.82;52.97;;;;;;;;;;6246863;28;20030;-79
2023/01/10 13:23:21;;;;;;;615.63;135.83;;;;;;;;;;6246310;28;20060;-78
2023/01/10 13:26:21;;;;;;;325.55;83.40;;;;;;;;;;6214887;28;20037;-79
2023/01/10 13:29:24;;;;;;;243.03;74.03;;;;;;;;;;6233591;28;20025;-77
2023/01/10 13:32:27;;;;;;;663.60;108.70;;;;;;;;;;6244690;28;20021;-79
2023/01/10 13:35:35;;;;;;;584.97;120.00;;;;;;;;;;6218518;28;20119;-77
2023/01/10 13:38:56;;;;;;;399.38;64.30;;;;;;;;;;6236279;28;20450;-78
2023/01/10 13:45:19;;;;;;;135.18;43.60;;;;;;;;;;6245626;28;20113;-78
2023/01/10 13:48:24;;;;;;;331.52;101.72;;;;;;;;;;6236849;28;20017;-78
2023/01/10 13:51:27;;;;;;;138.00;54.28;;;;;;;;;;6241886;28;20023;-79
2023/01/10 13:54:27;;;;;;;90.10;33.30;;;;;;;;;;6227556;28;20534;-79
2023/01/10 13:57:46;;;;;;;80.60;31.57;;;;;;;;;;6241539;28;20037;-80
2023/01/10 14:04:20;;;;;;;86.20;32.38;;;;;;;;;;6231994;28;20057;-79
2023/01/10 14:07:29;;;;;;;479.50;82.45;;;;;;;;;;6243266;28;20052;-78
2023/01/10 14:10:30;;;;;;;717.08;92.03;;;;;;;;;;6225482;28;20029;-78
2023/01/10 14:13:31;;;;;;;644.80;135.23;;;;;;;;;;6227860;28;20535;-78
2023/01/10 14:16:35;;;;;;;92.53;29.17;;;;;;;;;;6227702;28;20021;-78
2023/01/10 14:19:36;;;;;;;534.55;77.25;;;;;;;;;;6227118;28;20052;-78
2023/01/10 14:22:37;;;;;;;368.23;94.57;;;;;;;;;;6233319;28;20053;-77
2023/01/10 14:25:38;;;;;;;610.33;159.77;;;;;;;;;;6216916;28;20493;-78
2023/01/10 14:28:39;;;;;;;388.70;163.43;;;;;;;;;;6219680;28;20016;-78
2023/01/10 14:31:45;;;;;;;393.83;108.07;;;;;;;;;;6219022;28;20017;-78
2023/01/10 14:34:46;;;;;;;746.47;121.70;;;;;;;;;;6225788;28;20465;-78
2023/01/10 14:37:52;;;;;;;331.93;70.57;;;;;;;;;;6210766;28;20021;-79
2023/01/10 14:41:18;;;;;;;442.10;55.30;;;;;;;;;;6233011;28;20014;-78
2023/01/10 14:44:26;;;;;;;556.80;89.13;;;;;;;;;;6211457;28;20036;-78
2023/01/10 14:47:26;;;;;;;99.30;36.03;;;;;;;;;;6233219;28;20482;-79
2023/01/10 14:50:29;;;;;;;119.57;32.20;;;;;;;;;;6231472;28;20045;-78
2023/01/10 14:53:29;;;;;;;310.90;44.95;;;;;;;;;;6216835;28;20685;-78
2023/01/10 14:56:36;;;;;;;304.67;56.93;;;;;;;;;;6241253;28;20461;-78
2023/01/10 14:59:37;;;;;;;241.25;35.38;;;;;;;;;;6211957;28;20427;-79
2023/01/10 15:02:42;;;;;;;221.43;28.80;;;;;;;;;;6220047;28;20021;-78
2023/01/10 15:05:46;;;;;;;727.28;76.13;;;;;;;;;;6231471;28;20021;-77
2023/01/10 15:08:54;;;;;;;214.00;31.02;;;;;;;;;;6218603;28;20117;-77
2023/01/10 15:11:56;;;;;;;650.20;91.05;;;;;;;;;;6229990;28;20014;-77
2023/01/10 15:15:01;;;;;;;609.63;70.20;;;;;;;;;;6218711;28;20026;-77
2023/01/10 15:18:04;;;;;;;1028.55;97.38;;;;;;;;;;6239578;28;20055;-77
2023/01/10 15:21:04;;;;;;;871.78;79.15;;;;;;;;;;6219500;28;20488;-77
2023/01/10 15:24:21;;;;;;;134.07;32.03;;;;;;;;;;6230379;28;20014;-78
2023/01/10 15:27:22;;;;;;;469.15;64.25;;;;;;;;;;6228125;28;20033;-77
2023/01/10 15:30:30;;;;;;;231.67;42.00;;;;;;;;;;6221193;28;20014;-78
2023/01/10 15:33:31;;;;;;;465.88;73.90;;;;;;;;;;6224099;28;20013;-78
2023/01/10 15:36:32;;;;;;;254.43;43.92;;;;;;;;;;6246330;28;20024;-79
2023/01/10 15:39:37;;;;;;;470.47;74.90;;;;;;;;;;6237076;28;20025;-78
2023/01/10 15:42:38;;;;;;;719.63;99.65;;;;;;;;;;6203501;28;20113;-77
2023/01/10 15:45:38;;;;;;;316.27;53.37;;;;;;;;;;6237424;28;20030;-78
2023/01/10 15:48:40;;;;;;;581.60;73.80;;;;;;;;;;6237278;28;20088;-79
2023/01/10 15:51:40;;;;;;;193.52;46.40;;;;;;;;;;6247171;28;20017;-80
2023/01/10 15:54:43;;;;;;;206.50;43.40;;;;;;;;;;6241785;28;20022;-78
2023/01/10 15:57:43;;;;;;;522.70;51.05;;;;;;;;;;6241993;28;20276;-79
2023/01/10 16:00:45;;;;;;;450.67;53.40;;;;;;;;;;6222258;28;20028;-79
2023/01/10 16:03:45;;;;;;;738.63;71.32;;;;;;;;;;6223756;28;20010;-79
2023/01/10 16:06:47;;;;;;;692.17;86.40;;;;;;;;;;6236769;28;20025;-78
2023/01/10 16:10:08;;;;;;;198.27;45.72;;;;;;;;;;6215583;28;20478;-79
2023/01/10 16:13:27;;;;;;;158.50;39.10;;;;;;;;;;6208240;28;20394;-78
2023/01/10 16:16:28;;;;;;;362.90;50.28;;;;;;;;;;6218599;28;20045;-79
2023/01/10 16:19:28;;;;;;;1091.93;92.77;;;;;;;;;;6221339;28;20389;-78
2023/01/10 16:22:30;;;;;;;478.67;64.43;;;;;;;;;;6224432;28;20513;-78
2023/01/10 16:25:32;;;;;;;494.40;64.22;;;;;;;;;;6220800;28;20014;-78
2023/01/10 16:28:35;;;;;;;1071.07;89.20;;;;;;;;;;6208265;28;20061;-78
2023/01/10 16:31:35;;;;;;;418.00;62.65;;;;;;;;;;6216976;28;20036;-78
2023/01/10 16:34:35;;;;;;;734.08;68.05;;;;;;;;;;6214248;28;20013;-79
2023/01/10 16:37:38;;;;;;;741.37;68.43;;;;;;;;;;6211340;28;20051;-78
2023/01/10 16:40:40;;;;;;;1999.90;422.33;;;;;;;;;;6219546;28;20127;-78
2023/01/10 16:43:40;;;;;;;585.90;73.05;;;;;;;;;;6222721;28;20110;-78
2023/01/10 16:46:40;;;;;;;750.77;70.13;;;;;;;;;;6222122;28;20029;-78
2023/01/10 16:49:40;;;;;;;770.83;83.40;;;;;;;;;;6217138;28;20313;-79
2023/01/10 16:52:41;;;;;;;188.00;42.77;;;;;;;;;;6217440;28;20022;-78
2023/01/10 16:55:41;;;;;;;253.88;47.97;;;;;;;;;;6217143;28;20555;-78
2023/01/10 16:58:41;;;;;;;292.90;43.23;;;;;;;;;;6213234;28;20036;-78
2023/01/10 17:01:45;;;;;;;163.43;37.70;;;;;;;;;;6221614;28;20021;-78
2023/01/10 17:04:45;;;;;;;207.88;42.60;;;;;;;;;;6221295;28;20113;-79
2023/01/10 17:07:45;;;;;;;350.90;44.30;;;;;;;;;;6219631;28;20047;-78
2023/01/10 17:10:47;;;;;;;825.30;95.50;;;;;;;;;;6236500;28;20010;-78
2023/01/10 17:13:48;;;;;;;221.20;42.67;;;;;;;;;;6223974;28;20048;-78
2023/01/10 17:16:48;;;;;;;100.63;36.53;;;;;;;;;;6242658;28;20423;-79
2023/01/10 17:19:48;;;;;;;214.20;40.13;;;;;;;;;;6221154;28;20401;-78
2023/01/10 17:22:48;;;;;;;165.18;51.35;;;;;;;;;;6240918;28;20025;-79
2023/01/10 17:25:49;;;;;;;384.40;73.13;;;;;;;;;;6243047;28;20028;-79
2023/01/10 17:28:49;;;;;;;454.10;80.77;;;;;;;;;;6242244;28;20018;-79
2023/01/10 17:31:50;;;;;;;320.60;72.00;;;;;;;;;;6242467;28;20024;-79